Time;durP1;ratioP1;P1;durP2;ratioP2;P2;SDS_P1;SDS_P2;PMS_P1;PMS_P2;Temp;Humidity;BMP_temperature;BMP_pressure;BME280_temperature;BME280_humidity;BME280_pressure;Samples;Min_cycle;Max_cycle;Signal;HPM_P1;HPM_P2
2021/03/09 00:02:34;;;;;;;;;;;;;;;;;;;;;
2021/03/09 00:05:13;;;;;;;46.85;32.90;;;7.60;99.90;;;;;;5033372;28;20269;-80
2021/03/09 00:07:59;;;;;;;50.38;34.08;;;7.50;99.90;;;;;;5034268;28;20185;-81
2021/03/09 00:10:41;;;;;;;50.22;32.83;;;7.50;99.90;;;;;;5016717;28;20180;-81
2021/03/09 00:13:14;;;;;;;54.88;37.70;;;7.40;99.90;;;;;;5033396;28;20189;-80
2021/03/09 00:15:52;;;;;;;50.63;34.05;;;7.40;99.90;;;;;;5017256;28;20225;-81
2021/03/09 00:18:45;;;;;;;40.03;28.85;;;7.40;99.90;;;;;;5020223;28;20576;-80
2021/03/09 00:21:11;;;;;;;51.93;34.00;;;7.30;99.90;;;;;;5016903;28;20166;-80
2021/03/09 00:23:42;;;;;;;48.58;34.47;;;7.30;99.90;;;;;;5017008;28;20146;-81
2021/03/09 00:26:11;;;;;;;49.40;33.17;;;7.30;99.90;;;;;;5016622;28;20172;-81
2021/03/09 00:28:37;;;;;;;57.00;37.70;;;7.30;99.90;;;;;;5016008;28;20264;-81
2021/03/09 00:31:02;;;;;;;51.07;34.47;;;7.20;99.90;;;;;;5033073;28;20693;-81
2021/03/09 00:33:28;;;;;;;49.30;35.20;;;7.20;99.90;;;;;;5016803;28;20249;-82
2021/03/09 00:35:56;;;;;;;53.10;35.97;;;7.20;99.90;;;;;;5038565;28;20604;-81
2021/03/09 00:38:42;;;;;;;48.13;33.05;;;7.20;99.90;;;;;;5003184;28;20201;-80
2021/03/09 00:41:08;;;;;;;49.57;33.27;;;7.10;99.90;;;;;;5034339;28;20573;-80
2021/03/09 00:43:34;;;;;;;46.33;34.43;;;7.10;99.90;;;;;;4999684;28;20960;-80
2021/03/09 00:46:00;;;;;;;48.00;34.40;;;7.10;99.90;;;;;;5034293;28;20565;-75
2021/03/09 00:48:26;;;;;;;51.87;34.20;;;7.00;99.90;;;;;;5031975;28;20197;-75
2021/03/09 00:50:57;;;;;;;43.10;30.95;;;7.00;99.90;;;;;;5015981;28;20580;-76
2021/03/09 00:53:22;;;;;;;42.15;30.88;;;7.00;99.90;;;;;;5015910;28;20173;-76
2021/03/09 00:55:51;;;;;;;37.87;28.27;;;7.00;99.90;;;;;;5032419;28;20541;-76
2021/03/09 00:58:17;;;;;;;42.00;29.90;;;7.00;99.90;;;;;;5032887;28;20585;-76
2021/03/09 01:00:42;;;;;;;39.37;27.77;;;7.00;99.90;;;;;;5015997;28;20177;-76
2021/03/09 01:03:08;;;;;;;36.57;26.37;;;7.10;99.90;;;;;;5015640;28;20594;-76
2021/03/09 01:05:37;;;;;;;39.72;27.83;;;7.10;99.90;;;;;;5015677;28;20572;-75
2021/03/09 01:08:03;;;;;;;44.00;30.27;;;7.10;99.90;;;;;;5015256;28;20216;-75
2021/03/09 01:10:33;;;;;;;43.85;32.42;;;7.20;99.90;;;;;;5033356;28;20201;-76
2021/03/09 01:13:02;;;;;;;45.25;31.98;;;7.20;99.90;;;;;;5002910;28;20169;-76
2021/03/09 01:15:27;;;;;;;43.80;29.83;;;7.20;99.90;;;;;;5032042;28;20218;-76
2021/03/09 01:17:53;;;;;;;37.87;29.27;;;7.10;99.90;;;;;;5032604;28;20643;-75
2021/03/09 01:20:19;;;;;;;57.73;36.27;;;7.10;99.90;;;;;;5015332;28;20584;-75
2021/03/09 01:22:48;;;;;;;45.03;32.35;;;7.00;99.90;;;;;;4998951;28;20633;-75
2021/03/09 01:25:14;;;;;;;38.13;27.05;;;7.10;99.90;;;;;;4998748;28;20173;-74
2021/03/09 01:27:39;;;;;;;38.37;27.73;;;7.00;99.90;;;;;;5015046;28;20200;-75
2021/03/09 01:30:07;;;;;;;39.90;29.17;;;7.00;99.90;;;;;;5031247;28;21127;-76
2021/03/09 01:32:41;;;;;;;41.83;31.02;;;7.00;99.90;;;;;;4998745;28;20592;-75
2021/03/09 01:35:09;;;;;;;36.55;27.80;;;7.00;99.90;;;;;;5014274;28;20875;-76
2021/03/09 01:37:35;;;;;;;44.45;31.02;;;7.00;99.90;;;;;;5031409;28;20200;-75
2021/03/09 01:40:09;;;;;;;40.55;28.45;;;7.00;99.90;;;;;;5015273;28;20166;-75
2021/03/09 01:42:36;;;;;;;40.15;29.42;;;7.00;99.90;;;;;;5031659;28;20172;-75
2021/03/09 01:45:07;;;;;;;42.05;30.65;;;7.00;99.90;;;;;;4998950;28;20256;-75
2021/03/09 01:47:42;;;;;;;42.25;28.83;;;7.00;99.90;;;;;;5033143;28;20611;-75
2021/03/09 01:50:17;;;;;;;45.03;29.35;;;7.10;99.90;;;;;;5003276;28;20268;-74
2021/03/09 01:56:20;;;;;;;31.63;25.50;;;7.10;99.90;;;;;;5020154;28;20181;-75
2021/03/09 01:58:53;;;;;;;36.83;26.55;;;7.20;99.90;;;;;;5020753;28;20186;-75
2021/03/09 02:01:37;;;;;;;;;;;;;;;;;;;;;
2021/03/09 02:04:26;;;;;;;;;;;;;;;;;;;;;
2021/03/09 02:06:56;;;;;;;36.88;27.33;;;7.30;99.90;;;;;;5031361;28;20200;-75
2021/03/09 02:09:27;;;;;;;38.92;26.67;;;7.20;99.90;;;;;;5015533;28;20545;-76
2021/03/09 02:12:28;;;;;;;40.63;29.33;;;7.20;99.90;;;;;;5031715;28;20232;-77
2021/03/09 02:15:14;;;;;;;32.80;25.45;;;7.20;99.90;;;;;;5015120;28;20197;-76
2021/03/09 02:18:09;;;;;;;40.67;28.17;;;7.20;99.90;;;;;;5014201;28;20549;-75
2021/03/09 02:21:21;;;;;;;41.03;29.58;;;7.30;99.90;;;;;;4998093;28;20676;-74
2021/03/09 02:24:27;;;;;;;31.80;23.80;;;7.30;99.90;;;;;;4971759;28;20276;-75
2021/03/09 02:27:27;;;;;;;37.15;28.33;;;7.20;99.90;;;;;;5039150;28;20170;-76
2021/03/09 02:30:04;;;;;;;47.35;30.83;;;7.20;99.90;;;;;;5013979;28;20256;-76
2021/03/09 02:32:34;;;;;;;49.67;31.67;;;7.10;99.90;;;;;;5014227;28;20174;-76
2021/03/09 02:35:02;;;;;;;44.53;32.50;;;7.00;99.90;;;;;;5014092;28;20197;-76
2021/03/09 02:37:33;;;;;;;41.15;30.50;;;7.00;99.90;;;;;;5014205;28;20185;-75
2021/03/09 02:40:10;;;;;;;42.17;29.40;;;6.90;99.90;;;;;;5030316;28;20169;-75
2021/03/09 02:42:50;;;;;;;37.58;27.90;;;6.90;99.90;;;;;;5014681;28;20235;-75
2021/03/09 02:45:21;;;;;;;38.55;27.08;;;6.90;99.90;;;;;;4997869;28;20649;-76
2021/03/09 02:47:49;;;;;;;35.85;26.83;;;6.90;99.90;;;;;;5030450;28;20748;-75
2021/03/09 02:50:21;;;;;;;44.03;30.83;;;6.90;99.90;;;;;;5014047;28;20182;-76
2021/03/09 02:53:14;;;;;;;46.85;33.05;;;6.90;99.90;;;;;;4998750;28;20264;-76
2021/03/09 02:55:50;;;;;;;46.58;33.22;;;6.90;99.90;;;;;;5031895;28;20247;-75
2021/03/09 02:58:35;;;;;;;38.85;26.90;;;6.80;99.90;;;;;;5013853;28;20589;-76
2021/03/09 03:01:24;;;;;;;45.40;31.38;;;6.80;99.90;;;;;;4996645;28;20264;-74
2021/03/09 03:03:55;;;;;;;45.13;32.15;;;6.80;99.90;;;;;;5003534;28;20169;-76
2021/03/09 03:06:21;;;;;;;43.20;29.48;;;6.70;99.90;;;;;;5031871;28;20169;-75
2021/03/09 03:08:58;;;;;;;38.08;27.42;;;6.70;99.90;;;;;;5013741;28;20280;-76
2021/03/09 03:11:24;;;;;;;37.08;27.98;;;6.70;99.90;;;;;;5005987;28;20586;-75
2021/03/09 03:13:53;;;;;;;37.28;27.48;;;6.60;99.90;;;;;;4989282;28;20173;-76
2021/03/09 03:16:21;;;;;;;39.20;27.55;;;6.60;99.90;;;;;;5014601;28;20163;-74
2021/03/09 03:18:56;;;;;;;37.95;26.85;;;6.60;99.90;;;;;;5014126;28;20201;-74
2021/03/09 03:21:22;;;;;;;36.45;25.77;;;6.60;99.90;;;;;;5032615;28;20510;-75
2021/03/09 03:23:52;;;;;;;41.97;26.80;;;6.60;99.90;;;;;;5032809;28;20198;-76
2021/03/09 03:26:20;;;;;;;38.20;26.77;;;6.60;99.90;;;;;;5000805;28;20170;-76
2021/03/09 03:28:47;;;;;;;38.15;28.33;;;6.70;99.90;;;;;;5005788;28;20204;-76
2021/03/09 03:31:15;;;;;;;36.97;27.60;;;6.70;99.90;;;;;;5024394;28;20158;-77
2021/03/09 03:33:41;;;;;;;41.33;28.75;;;6.70;99.90;;;;;;5004533;28;20238;-75
2021/03/09 03:36:07;;;;;;;36.73;27.60;;;6.80;99.90;;;;;;5041854;28;20194;-75
2021/03/09 03:38:38;;;;;;;39.87;27.73;;;6.80;99.90;;;;;;5027305;28;20612;-76
2021/03/09 03:41:06;;;;;;;36.45;25.52;;;6.80;99.90;;;;;;5022046;28;20620;-75
2021/03/09 03:43:39;;;;;;;35.72;24.73;;;6.80;99.90;;;;;;5041711;28;20169;-77
2021/03/09 03:46:07;;;;;;;31.70;25.08;;;6.90;99.90;;;;;;5039291;28;20229;-75
2021/03/09 03:48:35;;;;;;;35.35;25.42;;;6.90;99.90;;;;;;5021823;28;20205;-75
2021/03/09 03:51:03;;;;;;;32.60;24.73;;;6.90;99.90;;;;;;5037196;28;20177;-75
2021/03/09 03:54:06;;;;;;;32.20;24.67;;;6.90;99.90;;;;;;5015098;28;20177;-75
2021/03/09 03:56:47;;;;;;;29.45;23.63;;;6.90;99.90;;;;;;5014714;28;20267;-75
2021/03/09 03:59:18;;;;;;;31.15;21.77;;;6.90;99.90;;;;;;5033760;28;20186;-75
2021/03/09 04:01:47;;;;;;;34.63;22.75;;;6.90;99.90;;;;;;5018068;28;20170;-75
2021/03/09 04:04:16;;;;;;;33.92;24.05;;;6.90;99.90;;;;;;5018377;28;20514;-74
2021/03/09 04:06:47;;;;;;;30.48;23.88;;;7.00;99.90;;;;;;5018507;28;20201;-75
2021/03/09 04:09:15;;;;;;;32.90;24.92;;;7.00;99.90;;;;;;5017917;28;20193;-75
2021/03/09 04:11:41;;;;;;;33.42;24.52;;;7.00;99.90;;;;;;5017952;28;20166;-75
2021/03/09 04:14:12;;;;;;;31.52;23.25;;;7.10;99.90;;;;;;5002576;28;20201;-75
2021/03/09 04:16:45;;;;;;;36.05;23.70;;;7.10;99.90;;;;;;5034764;28;20189;-75
2021/03/09 04:19:12;;;;;;;30.50;24.55;;;7.10;99.90;;;;;;5020808;28;20291;-78
2021/03/09 04:21:40;;;;;;;32.45;25.17;;;7.10;99.90;;;;;;5033871;28;20169;-78
2021/03/09 04:24:07;;;;;;;28.35;20.90;;;7.10;99.90;;;;;;5033482;28;20181;-78
2021/03/09 04:26:33;;;;;;;29.88;22.30;;;7.10;99.90;;;;;;5016810;28;20174;-78
2021/03/09 04:29:00;;;;;;;31.05;23.65;;;7.10;99.90;;;;;;5034082;28;20599;-78
2021/03/09 04:31:26;;;;;;;34.03;23.38;;;7.10;99.90;;;;;;5019648;28;20693;-78
2021/03/09 04:33:55;;;;;;;30.63;22.85;;;7.10;99.90;;;;;;5034260;28;20173;-78
2021/03/09 04:36:21;;;;;;;36.90;25.52;;;7.10;99.90;;;;;;5000181;28;20223;-78
2021/03/09 04:38:50;;;;;;;31.25;22.50;;;7.20;99.90;;;;;;5032471;28;20545;-78
2021/03/09 04:41:25;;;;;;;32.45;22.70;;;7.10;99.90;;;;;;5016230;28;20181;-78
2021/03/09 04:44:06;;;;;;;30.25;23.35;;;7.10;99.90;;;;;;5017481;28;20169;-78
2021/03/09 04:46:45;;;;;;;27.63;21.10;;;7.10;99.90;;;;;;5033895;28;20166;-78
2021/03/09 04:49:16;;;;;;;30.63;24.88;;;7.20;99.90;;;;;;5033626;28;20193;-78
2021/03/09 04:52:03;;;;;;;30.27;23.42;;;7.20;99.90;;;;;;5015875;28;20174;-78
2021/03/09 04:54:34;;;;;;;29.38;21.77;;;7.20;99.90;;;;;;5035318;28;20209;-78
2021/03/09 04:57:16;;;;;;;33.47;22.17;;;7.20;99.90;;;;;;5032456;28;20170;-78
2021/03/09 04:59:49;;;;;;;30.65;21.95;;;7.20;99.90;;;;;;5016065;28;20185;-77
2021/03/09 05:02:26;;;;;;;29.70;23.20;;;7.20;99.90;;;;;;5015370;28;20195;-78
2021/03/09 05:05:04;;;;;;;34.25;23.05;;;7.20;99.90;;;;;;5015549;28;20169;-77
2021/03/09 05:07:41;;;;;;;32.42;22.13;;;7.20;99.90;;;;;;5015596;28;20746;-77
2021/03/09 05:10:30;;;;;;;31.48;22.33;;;7.20;99.90;;;;;;5012614;28;20348;-78
2021/03/09 05:13:01;;;;;;;28.48;21.05;;;7.30;99.90;;;;;;5015412;28;20181;-78
2021/03/09 05:15:37;;;;;;;29.73;21.30;;;7.30;99.90;;;;;;5033444;28;20194;-78
2021/03/09 05:18:08;;;;;;;30.30;22.25;;;7.30;99.90;;;;;;5014900;28;20190;-78
2021/03/09 05:20:40;;;;;;;29.20;21.52;;;7.30;99.90;;;;;;4999274;28;20273;-78
2021/03/09 05:23:11;;;;;;;29.75;21.08;;;7.30;99.90;;;;;;5031878;28;20162;-78
2021/03/09 05:25:40;;;;;;;28.92;22.40;;;7.30;99.90;;;;;;4983339;28;20545;-78
2021/03/09 05:28:11;;;;;;;30.90;21.65;;;7.30;99.90;;;;;;5031970;28;20193;-78
2021/03/09 05:30:39;;;;;;;26.17;20.95;;;7.30;99.90;;;;;;5032586;28;20206;-78
2021/03/09 05:33:09;;;;;;;32.15;23.02;;;7.30;99.90;;;;;;4999913;28;20535;-78
2021/03/09 05:35:45;;;;;;;28.90;21.00;;;7.30;99.90;;;;;;4980677;28;20271;-78
2021/03/09 05:38:16;;;;;;;29.10;22.08;;;7.30;99.90;;;;;;4994922;28;20710;-79
2021/03/09 05:40:41;;;;;;;29.23;22.60;;;7.40;99.90;;;;;;4995451;28;20258;-78
2021/03/09 05:43:07;;;;;;;30.87;23.37;;;7.30;99.90;;;;;;4995443;28;20592;-79
2021/03/09 05:45:36;;;;;;;32.72;21.70;;;7.30;99.90;;;;;;4995868;28;20170;-79
2021/03/09 05:48:03;;;;;;;30.70;22.45;;;7.30;99.90;;;;;;4962820;28;20593;-78
2021/03/09 05:50:29;;;;;;;32.67;24.58;;;7.30;99.90;;;;;;5013368;28;20182;-78
2021/03/09 05:52:55;;;;;;;26.65;21.15;;;7.30;99.90;;;;;;4979303;28;20216;-79
2021/03/09 05:55:23;;;;;;;30.60;22.13;;;7.30;99.90;;;;;;4995194;28;20609;-79
2021/03/09 05:57:50;;;;;;;27.60;21.20;;;7.40;99.90;;;;;;5012345;28;20636;-80
2021/03/09 06:00:16;;;;;;;30.00;21.85;;;7.30;99.90;;;;;;5012666;28;20171;-79
2021/03/09 06:02:42;;;;;;;31.73;22.20;;;7.40;99.90;;;;;;4979064;28;20170;-79
2021/03/09 06:05:11;;;;;;;29.65;22.27;;;7.40;99.90;;;;;;4979127;28;20581;-80
2021/03/09 06:07:46;;;;;;;29.90;21.88;;;7.40;99.90;;;;;;4979608;28;20189;-80
2021/03/09 06:10:20;;;;;;;29.13;21.80;;;7.40;99.90;;;;;;5000785;28;20158;-79
2021/03/09 06:12:49;;;;;;;28.58;21.30;;;7.40;99.90;;;;;;4995883;28;20281;-78
2021/03/09 06:15:18;;;;;;;29.90;21.85;;;7.40;99.90;;;;;;4979197;28;20198;-79
2021/03/09 06:17:53;;;;;;;31.60;21.13;;;7.40;99.90;;;;;;4978513;28;20298;-79
2021/03/09 06:20:24;;;;;;;29.23;21.60;;;7.40;99.90;;;;;;4994980;28;20688;-78
2021/03/09 06:22:59;;;;;;;27.42;20.58;;;7.30;99.90;;;;;;5012124;28;20622;-79
2021/03/09 06:25:29;;;;;;;29.35;22.50;;;7.40;99.90;;;;;;5012427;28;20180;-80
2021/03/09 06:28:06;;;;;;;28.45;21.58;;;7.30;99.90;;;;;;4994387;28;20213;-79
2021/03/09 06:30:38;;;;;;;27.55;19.45;;;7.30;99.90;;;;;;4995447;28;20254;-78
2021/03/09 06:33:05;;;;;;;30.25;21.80;;;7.30;99.90;;;;;;4994585;28;20174;-78
2021/03/09 06:35:42;;;;;;;29.45;21.17;;;7.30;99.90;;;;;;4994705;28;20194;-78
2021/03/09 06:38:24;;;;;;;28.10;20.90;;;7.30;99.90;;;;;;4994153;28;20198;-78
2021/03/09 06:41:14;;;;;;;25.58;18.60;;;7.30;99.90;;;;;;4995036;28;20540;-76
2021/03/09 06:43:42;;;;;;;28.17;20.23;;;7.30;99.90;;;;;;4994820;28;20242;-77
2021/03/09 06:46:21;;;;;;;26.05;17.83;;;7.30;99.90;;;;;;5017654;28;20197;-77
2021/03/09 06:48:51;;;;;;;30.52;25.30;;;7.30;99.90;;;;;;4976468;28;20712;-75
2021/03/09 06:51:34;;;;;;;27.38;22.30;;;7.20;99.90;;;;;;4978222;28;20192;-76
2021/03/09 06:54:12;;;;;;;25.33;20.35;;;7.30;99.90;;;;;;4994080;28;20178;-76
2021/03/09 06:56:45;;;;;;;24.20;20.02;;;7.30;99.90;;;;;;5029447;28;20252;-76
2021/03/09 06:59:31;;;;;;;25.63;19.75;;;7.30;99.90;;;;;;5032892;28;20287;-76
2021/03/09 07:02:08;;;;;;;28.17;20.20;;;7.30;99.90;;;;;;5034037;28;20160;-75
2021/03/09 07:04:39;;;;;;;24.60;19.20;;;7.40;99.90;;;;;;5016820;28;20173;-76
2021/03/09 07:07:12;;;;;;;23.58;18.83;;;7.40;99.90;;;;;;5032770;28;20278;-76
2021/03/09 07:09:52;;;;;;;23.80;18.23;;;7.40;99.90;;;;;;5033271;28;20156;-76
2021/03/09 07:12:19;;;;;;;26.35;20.08;;;7.40;99.90;;;;;;5051058;28;20169;-77
2021/03/09 07:14:49;;;;;;;26.45;20.77;;;7.40;99.90;;;;;;5051076;28;20197;-77
2021/03/09 07:17:18;;;;;;;24.58;19.45;;;7.40;99.90;;;;;;5050901;28;20180;-75
2021/03/09 07:19:47;;;;;;;25.92;21.08;;;7.40;99.90;;;;;;5050406;28;20184;-75
2021/03/09 07:22:20;;;;;;;28.60;22.60;;;7.30;99.90;;;;;;5017218;28;20180;-76
2021/03/09 07:25:00;;;;;;;26.63;20.88;;;7.30;99.90;;;;;;5037219;28;20169;-77
2021/03/09 07:27:48;;;;;;;29.35;20.40;;;7.20;99.90;;;;;;5032733;28;20268;-77
2021/03/09 07:30:16;;;;;;;24.45;17.73;;;7.10;99.90;;;;;;5050280;28;20177;-78
2021/03/09 07:32:53;;;;;;;24.42;18.02;;;7.00;99.90;;;;;;5032984;28;20180;-77
2021/03/09 07:35:20;;;;;;;25.30;19.77;;;7.00;99.90;;;;;;5036311;28;20686;-77
2021/03/09 07:37:47;;;;;;;24.75;18.10;;;7.00;99.90;;;;;;5054514;28;20193;-75
2021/03/09 07:40:19;;;;;;;22.55;17.30;;;7.00;99.90;;;;;;5054646;28;20566;-75
2021/03/09 07:42:44;;;;;;;25.83;18.92;;;7.00;99.90;;;;;;5054749;28;20234;-76
2021/03/09 07:45:20;;;;;;;22.48;18.08;;;7.00;99.90;;;;;;5036630;28;20192;-77
2021/03/09 07:47:48;;;;;;;23.20;18.48;;;7.00;99.90;;;;;;5036036;28;20752;-76
2021/03/09 07:50:15;;;;;;;19.90;15.68;;;7.00;99.90;;;;;;5036410;28;20227;-77
2021/03/09 07:53:18;;;;;;;19.00;14.73;;;7.00;99.90;;;;;;5020059;28;20227;-77
2021/03/09 07:55:49;;;;;;;18.15;14.77;;;7.10;99.90;;;;;;5053194;28;20522;-77
2021/03/09 07:58:27;;;;;;;22.92;15.57;;;7.20;99.90;;;;;;5036399;28;20197;-76
2021/03/09 08:00:56;;;;;;;23.98;17.95;;;7.20;99.90;;;;;;5024694;28;20176;-79
2021/03/09 08:03:28;;;;;;;23.38;17.55;;;7.20;99.90;;;;;;5019529;28;20230;-77
2021/03/09 08:06:40;;;;;;;18.55;15.30;;;7.30;99.90;;;;;;5052939;28;20248;-76
2021/03/09 08:09:05;;;;;;;23.10;16.65;;;7.30;99.90;;;;;;5015911;28;20259;-77
2021/03/09 08:11:31;;;;;;;22.57;16.30;;;7.30;99.90;;;;;;5036430;28;20660;-77
2021/03/09 08:14:03;;;;;;;22.70;16.03;;;7.20;99.90;;;;;;5036291;28;20571;-78
2021/03/09 08:16:31;;;;;;;18.60;15.27;;;7.20;99.90;;;;;;5036665;28;20180;-78
2021/03/09 08:19:01;;;;;;;17.85;14.50;;;7.20;99.90;;;;;;5002841;28;20204;-79
2021/03/09 08:21:39;;;;;;;19.25;13.90;;;7.20;99.90;;;;;;5020465;28;20169;-79
2021/03/09 08:24:08;;;;;;;17.83;14.18;;;7.20;99.90;;;;;;5019868;28;20172;-78
2021/03/09 08:26:34;;;;;;;18.90;14.25;;;7.20;99.90;;;;;;5019912;28;20180;-77
2021/03/09 08:29:00;;;;;;;20.40;14.40;;;7.20;99.90;;;;;;5054568;28;20185;-78
2021/03/09 08:31:28;;;;;;;16.10;12.35;;;7.20;99.90;;;;;;5036283;28;20169;-77
2021/03/09 08:34:27;;;;;;;14.55;11.95;;;7.20;99.90;;;;;;5052620;28;20215;-78
2021/03/09 08:36:56;;;;;;;19.40;14.05;;;7.20;99.90;;;;;;5038446;28;20219;-77
2021/03/09 08:39:22;;;;;;;21.48;15.05;;;7.20;99.90;;;;;;5021400;28;20185;-79
2021/03/09 08:41:48;;;;;;;18.47;13.97;;;7.20;99.90;;;;;;5036131;28;20169;-80
2021/03/09 08:44:14;;;;;;;22.23;14.30;;;7.20;99.90;;;;;;5035665;28;20666;-78
2021/03/09 08:47:05;;;;;;;18.00;14.70;;;7.20;99.90;;;;;;5035785;28;20583;-79
2021/03/09 08:49:34;;;;;;;18.00;14.60;;;7.30;99.90;;;;;;5053058;28;20278;-78
2021/03/09 08:52:17;;;;;;;16.50;13.65;;;7.20;99.90;;;;;;5020171;28;20177;-79
2021/03/09 08:54:48;;;;;;;18.75;11.85;;;7.30;99.90;;;;;;5053633;28;20606;-77
2021/03/09 08:57:24;;;;;;;19.65;13.90;;;7.30;99.90;;;;;;5035419;28;20165;-79
2021/03/09 09:00:02;;;;;;;17.38;12.60;;;7.40;99.90;;;;;;5035355;28;20536;-78
2021/03/09 09:02:30;;;;;;;14.52;12.65;;;7.40;99.90;;;;;;5052130;28;20165;-76
2021/03/09 09:05:04;;;;;;;15.45;12.43;;;7.50;99.90;;;;;;5035884;28;20165;-80
2021/03/09 09:07:36;;;;;;;15.88;12.57;;;7.50;99.90;;;;;;5020479;28;20196;-80
2021/03/09 09:10:15;;;;;;;18.05;12.93;;;7.50;99.90;;;;;;5035559;28;20307;-80
2021/03/09 09:12:51;;;;;;;16.88;11.80;;;7.60;99.90;;;;;;5053464;28;20172;-79
2021/03/09 09:15:28;;;;;;;16.38;12.50;;;7.60;99.90;;;;;;5023534;28;20211;-79
2021/03/09 09:17:54;;;;;;;14.73;11.85;;;7.70;99.90;;;;;;5018343;28;20200;-79
2021/03/09 09:20:29;;;;;;;15.63;12.13;;;7.70;99.90;;;;;;5051879;28;20169;-77
2021/03/09 09:23:03;;;;;;;20.67;18.48;;;7.80;99.90;;;;;;5034307;28;20847;-78
2021/03/09 09:25:34;;;;;;;21.33;15.77;;;7.60;99.90;;;;;;5050721;28;20679;-78
2021/03/09 09:28:04;;;;;;;21.27;14.52;;;7.70;99.90;;;;;;5051181;28;20261;-78
2021/03/09 09:30:57;;;;;;;18.80;13.50;;;7.80;99.90;;;;;;5052890;28;20169;-77
2021/03/09 09:33:29;;;;;;;16.02;12.27;;;7.90;99.90;;;;;;5011276;28;20617;-77
2021/03/09 09:35:56;;;;;;;16.20;13.25;;;7.90;99.90;;;;;;5034824;28;20573;-77
2021/03/09 09:38:22;;;;;;;18.20;13.55;;;7.90;99.90;;;;;;5050985;28;20554;-78
2021/03/09 09:40:58;;;;;;;20.08;15.73;;;8.00;99.90;;;;;;5019479;28;20544;-79
2021/03/09 09:43:35;;;;;;;19.38;14.45;;;8.00;99.90;;;;;;5052809;28;20574;-78
2021/03/09 09:46:06;;;;;;;17.27;14.60;;;8.00;99.90;;;;;;5035333;28;20192;-78
2021/03/09 09:48:37;;;;;;;18.02;13.98;;;8.10;99.90;;;;;;5018112;28;20201;-78
2021/03/09 09:51:06;;;;;;;19.73;15.65;;;8.10;99.90;;;;;;5037494;28;20173;-77
2021/03/09 09:53:41;;;;;;;20.35;15.70;;;8.10;99.90;;;;;;5040254;28;20250;-78
2021/03/09 09:56:21;;;;;;;23.83;19.63;;;8.10;99.90;;;;;;5034888;28;20193;-79
2021/03/09 09:58:49;;;;;;;21.15;17.30;;;8.10;99.90;;;;;;5034167;28;20188;-78
2021/03/09 10:01:35;;;;;;;20.58;17.33;;;8.10;99.90;;;;;;5052215;28;20525;-78
2021/03/09 10:04:07;;;;;;;18.08;16.10;;;8.00;99.90;;;;;;5052303;28;20214;-78
2021/03/09 10:06:43;;;;;;;19.55;16.40;;;8.00;99.90;;;;;;5018240;28;20173;-78
2021/03/09 10:09:12;;;;;;;20.15;16.65;;;8.00;99.90;;;;;;5034211;28;20227;-79
2021/03/09 10:11:48;;;;;;;17.27;15.43;;;8.00;99.90;;;;;;5034674;28;20165;-78
2021/03/09 10:14:16;;;;;;;19.13;15.95;;;8.00;99.90;;;;;;5034504;28;20200;-78
2021/03/09 10:16:47;;;;;;;19.75;15.95;;;8.00;99.90;;;;;;5018522;28;20165;-80
2021/03/09 10:19:17;;;;;;;16.80;15.00;;;8.00;99.90;;;;;;5017657;28;20583;-79
2021/03/09 10:21:43;;;;;;;15.80;14.10;;;7.90;99.90;;;;;;5018266;28;20197;-79
2021/03/09 10:24:38;;;;;;;17.73;13.68;;;7.90;99.90;;;;;;5034973;28;20215;-79
2021/03/09 10:27:04;;;;;;;14.90;13.40;;;7.80;99.90;;;;;;5035314;28;20161;-78
2021/03/09 10:29:34;;;;;;;12.98;11.65;;;7.80;99.90;;;;;;5039716;28;20185;-78
2021/03/09 10:32:04;;;;;;;12.18;11.13;;;7.70;99.90;;;;;;5051522;28;20216;-79
2021/03/09 10:34:44;;;;;;;15.02;13.57;;;7.60;99.90;;;;;;5039025;28;20228;-79
2021/03/09 10:37:19;;;;;;;14.55;13.07;;;7.60;99.90;;;;;;5056666;28;20156;-79
2021/03/09 10:39:55;;;;;;;16.60;14.43;;;7.50;99.90;;;;;;5051656;28;20170;-78
2021/03/09 10:42:24;;;;;;;15.43;13.93;;;7.50;99.90;;;;;;5034326;28;20169;-78
2021/03/09 10:44:50;;;;;;;15.23;13.77;;;7.50;99.90;;;;;;5033823;28;20208;-78
2021/03/09 10:47:21;;;;;;;13.98;11.82;;;7.40;99.90;;;;;;5033623;28;20169;-79
2021/03/09 10:49:50;;;;;;;14.40;12.90;;;7.40;99.90;;;;;;5050195;28;20208;-78
2021/03/09 10:52:17;;;;;;;15.20;13.70;;;7.40;99.90;;;;;;5018703;28;20231;-79
2021/03/09 10:54:43;;;;;;;13.52;12.07;;;7.40;99.90;;;;;;5035065;28;20216;-79
2021/03/09 10:57:10;;;;;;;14.23;12.73;;;7.50;99.90;;;;;;5034394;28;20534;-79
2021/03/09 10:59:39;;;;;;;15.20;13.45;;;7.50;99.90;;;;;;5033653;28;20974;-79
2021/03/09 11:02:09;;;;;;;15.25;13.65;;;7.50;99.90;;;;;;5038968;28;20187;-79
2021/03/09 11:04:35;;;;;;;15.93;12.30;;;7.60;99.90;;;;;;5045403;28;20165;-78
2021/03/09 11:07:02;;;;;;;14.02;12.63;;;7.60;99.90;;;;;;5033378;28;20223;-77
2021/03/09 11:09:29;;;;;;;13.20;11.90;;;7.60;99.90;;;;;;5029677;28;20279;-79
2021/03/09 11:11:55;;;;;;;13.50;11.75;;;7.60;99.90;;;;;;5067155;28;20267;-79
2021/03/09 11:14:24;;;;;;;13.32;11.95;;;7.60;99.90;;;;;;5049327;28;20197;-79
2021/03/09 11:16:55;;;;;;;13.38;11.98;;;7.60;99.90;;;;;;5067319;28;20161;-82
2021/03/09 11:19:33;;;;;;;12.82;11.25;;;7.60;99.90;;;;;;5043219;28;20193;-82
2021/03/09 11:22:00;;;;;;;14.57;12.80;;;7.70;99.90;;;;;;5039551;28;20161;-82
2021/03/09 11:24:29;;;;;;;15.40;12.60;;;7.70;99.90;;;;;;5022725;28;20169;-81
2021/03/09 11:27:10;;;;;;;12.23;10.85;;;7.70;99.90;;;;;;5039381;28;20173;-82
2021/03/09 11:30:06;;;;;;;14.27;12.90;;;7.70;99.90;;;;;;5018964;28;20191;-82
2021/03/09 11:32:34;;;;;;;15.27;13.07;;;7.80;99.90;;;;;;5056780;28;20551;-82
2021/03/09 11:35:00;;;;;;;15.88;13.15;;;7.80;99.90;;;;;;5055898;28;20250;-83
2021/03/09 11:37:29;;;;;;;14.75;13.15;;;7.90;99.90;;;;;;5054601;28;20157;-82
2021/03/09 11:39:54;;;;;;;17.42;14.38;;;7.90;99.90;;;;;;5021328;28;20173;-83
2021/03/09 11:42:25;;;;;;;16.17;14.13;;;8.00;99.90;;;;;;5007206;28;20248;-80
2021/03/09 11:44:51;;;;;;;16.88;14.35;;;8.10;99.90;;;;;;5059312;28;20183;-82
2021/03/09 11:47:21;;;;;;;16.20;13.25;;;8.10;99.90;;;;;;5054150;28;20308;-78
2021/03/09 11:49:47;;;;;;;16.90;15.18;;;8.20;99.90;;;;;;5036563;28;20169;-79
2021/03/09 11:52:13;;;;;;;15.60;13.77;;;8.20;99.90;;;;;;5037135;28;20192;-79
2021/03/09 11:54:42;;;;;;;16.67;14.90;;;8.30;99.90;;;;;;5004124;28;20208;-80
2021/03/09 11:57:08;;;;;;;18.00;15.50;;;8.30;99.90;;;;;;5053582;28;20559;-78
2021/03/09 11:59:36;;;;;;;20.30;17.73;;;8.30;99.90;;;;;;5036260;28;20696;-79
2021/03/09 12:02:01;;;;;;;21.10;17.10;;;8.30;99.90;;;;;;5020158;28;20176;-78
2021/03/09 12:04:27;;;;;;;16.47;14.67;;;8.30;99.90;;;;;;5037032;28;20173;-78
2021/03/09 12:06:53;;;;;;;20.20;16.80;;;8.30;99.90;;;;;;5036506;28;20704;-79
2021/03/09 12:09:19;;;;;;;25.65;22.23;;;8.40;99.90;;;;;;5035659;28;20716;-79
2021/03/09 12:11:44;;;;;;;25.27;19.87;;;8.40;99.90;;;;;;5036272;28;20607;-81
2021/03/09 12:14:10;;;;;;;23.27;18.60;;;8.50;99.90;;;;;;5037073;28;20227;-79
2021/03/09 12:16:37;;;;;;;21.75;18.80;;;8.50;99.90;;;;;;5036553;28;20161;-79
2021/03/09 12:19:13;;;;;;;31.10;26.40;;;8.60;99.90;;;;;;5037323;28;20725;-80
2021/03/09 12:21:41;;;;;;;28.13;23.57;;;8.60;99.90;;;;;;5059231;28;20585;-81
2021/03/09 12:24:09;;;;;;;23.90;21.38;;;8.60;99.90;;;;;;5054520;28;20555;-81
2021/03/09 12:26:35;;;;;;;25.15;19.45;;;8.70;99.90;;;;;;5019736;28;20491;-79
2021/03/09 12:29:01;;;;;;;24.33;20.00;;;8.80;99.90;;;;;;5035915;28;20193;-81
2021/03/09 12:31:27;;;;;;;27.57;22.57;;;8.90;99.90;;;;;;5036322;28;20169;-80
2021/03/09 12:33:53;;;;;;;25.83;21.90;;;8.90;99.90;;;;;;5036035;28;20567;-80
2021/03/09 12:36:21;;;;;;;26.63;20.03;;;9.00;99.90;;;;;;5036284;28;20277;-82
2021/03/09 12:38:46;;;;;;;26.02;21.50;;;9.10;99.90;;;;;;5032116;28;20185;-82
2021/03/09 12:41:17;;;;;;;24.30;20.60;;;9.10;99.90;;;;;;5000236;28;20176;-83
2021/03/09 12:43:48;;;;;;;27.35;23.17;;;9.20;99.90;;;;;;5017872;28;20572;-83
2021/03/09 12:46:14;;;;;;;31.53;25.30;;;9.20;99.90;;;;;;5035107;28;20179;-83
2021/03/09 12:48:40;;;;;;;26.37;21.23;;;9.30;99.90;;;;;;5003886;28;20607;-82
2021/03/09 12:51:06;;;;;;;30.40;26.17;;;9.30;99.90;;;;;;5018588;28;20173;-82
2021/03/09 12:53:34;;;;;;;34.63;24.88;;;9.30;99.90;;;;;;5017780;28;21362;-84
2021/03/09 12:56:05;;;;;;;30.80;24.40;;;9.40;99.90;;;;;;5002537;28;20255;-85
2021/03/09 12:58:34;;;;;;;30.02;24.20;;;9.40;99.90;;;;;;5020705;28;20200;-84
2021/03/09 13:01:04;;;;;;;28.55;23.35;;;9.40;99.90;;;;;;5000448;28;20273;-84
2021/03/09 13:03:32;;;;;;;26.48;22.45;;;9.40;99.90;;;;;;5000258;28;20174;-84
2021/03/09 13:05:58;;;;;;;32.57;24.40;;;9.50;99.90;;;;;;5000251;28;20178;-84
2021/03/09 13:08:25;;;;;;;30.17;23.13;;;9.60;99.90;;;;;;4999649;28;20607;-84
2021/03/09 13:10:52;;;;;;;30.90;23.77;;;9.60;99.90;;;;;;5032928;28;20602;-84